Time,TemperatureF,DewpointF,PressureIn,WindDirection,WindDirectionDegrees,WindSpeedMPH,WindSpeedGustMPH,Humidity,HourlyPrecipIn,Conditions,Clouds,dailyrainin,SolarRadiationWatts/m^2,SoftwareType,DateUTC
2013-04-08 00:10:00,31.5,30.2,29.73,WSW,251,8.0,16.0,95,0.00,,,0.15,0,Wunderground v.1.15,2013-04-08 06:10:00,
2013-04-08 00:16:00,31.4,29.9,29.75,WSW,251,8.0,16.0,94,0.00,,,0.15,0,Wunderground v.1.15,2013-04-08 06:16:00,
2013-04-08 00:36:00,31.0,29.5,29.74,WSW,251,7.0,16.0,94,0.00,,,0.15,0,Wunderground v.1.15,2013-04-08 06:36:00,
2013-04-08 00:42:00,31.0,29.2,29.75,WSW,251,8.0,16.0,93,0.00,,,0.15,0,Wunderground v.1.15,2013-04-08 06:42:00,
2013-04-08 01:12:00,30.5,27.6,29.74,WSW,251,9.0,16.0,89,0.00,,,0.15,0,Wunderground v.1.15,2013-04-08 07:12:00,
2013-04-08 01:20:00,30.5,27.6,29.74,WSW,251,10.0,16.0,89,0.00,,,0.15,0,Wunderground v.1.15,2013-04-08 07:20:00,
2013-04-08 01:58:00,30.0,26.0,29.77,WSW,251,12.0,16.0,85,0.00,,,0.15,0,Wunderground v.1.15,2013-04-08 07:58:00,
2013-04-08 02:04:00,29.9,26.2,29.77,WSW,251,11.0,16.0,86,0.00,,,0.15,0,Wunderground v.1.15,2013-04-08 08:04:00,
2013-04-08 02:46:00,28.7,24.2,29.78,WSW,251,11.0,16.0,83,0.00,,,0.15,0,Wunderground v.1.15,2013-04-08 08:46:00,
2013-04-08 02:58:00,28.5,24.0,29.79,WSW,251,10.0,16.0,83,0.00,,,0.15,0,Wunderground v.1.15,2013-04-08 08:58:00,
2013-04-08 03:10:00,28.2,24.0,29.80,WSW,251,11.0,16.0,84,0.00,,,0.15,0,Wunderground v.1.15,2013-04-08 09:10:00,
2013-04-08 03:28:00,28.1,23.6,29.80,WSW,251,12.0,16.0,83,0.00,,,0.15,0,Wunderground v.1.15,2013-04-08 09:28:00,
2013-04-08 03:34:00,28.0,23.5,29.80,WSW,251,12.0,16.0,83,0.00,,,0.15,0,Wunderground v.1.15,2013-04-08 09:34:00,
2013-04-08 03:58:00,27.6,23.1,29.80,WSW,251,13.0,16.0,83,0.00,,,0.15,0,Wunderground v.1.15,2013-04-08 09:58:00,
2013-04-08 04:18:00,27.1,22.6,29.81,WSW,251,14.0,16.0,83,0.00,,,0.15,0,Wunderground v.1.15,2013-04-08 10:18:00,
2013-04-08 04:24:00,27.2,23.0,29.82,WSW,251,14.0,16.0,84,0.00,,,0.15,0,Wunderground v.1.15,2013-04-08 10:24:00,
2013-04-08 04:42:00,26.8,22.3,29.82,WSW,251,14.0,16.0,83,0.00,,,0.15,0,Wunderground v.1.15,2013-04-08 10:42:00,
2013-04-08 04:54:00,26.7,22.5,29.83,WSW,251,14.0,16.0,84,0.00,,,0.15,0,Wunderground v.1.15,2013-04-08 10:54:00,
2013-04-08 05:00:00,26.6,21.6,29.83,WSW,251,14.0,14.0,81,0.00,,,0.15,0,Wunderground v.1.15,2013-04-08 11:00:00,
2013-04-08 05:06:00,26.8,22.6,29.83,WSW,251,14.0,16.0,84,0.00,,,0.15,0,Wunderground v.1.15,2013-04-08 11:06:00,
2013-04-08 05:16:00,26.8,22.3,29.83,WSW,251,14.0,17.0,83,0.00,,,0.15,0,Wunderground v.1.15,2013-04-08 11:16:00,
2013-04-08 05:22:00,26.9,22.1,29.83,WSW,251,15.0,20.0,82,0.00,,,0.15,0,Wunderground v.1.15,2013-04-08 11:22:00,
2013-04-08 05:30:00,26.7,21.9,29.83,WSW,251,17.0,18.0,82,0.00,,,0.15,0,Wunderground v.1.15,2013-04-08 11:30:00,
2013-04-08 05:38:00,26.7,21.4,29.84,WSW,251,17.0,19.0,80,0.00,,,0.15,0,Wunderground v.1.15,2013-04-08 11:38:00,
2013-04-08 05:56:00,26.1,20.8,29.84,WSW,251,19.0,19.0,80,0.00,,,0.15,0,Wunderground v.1.15,2013-04-08 11:56:00,
2013-04-08 06:04:00,26.1,20.8,29.84,WSW,251,20.0,20.0,80,0.00,,,0.15,0,Wunderground v.1.15,2013-04-08 12:04:00,
2013-04-08 06:10:00,25.9,20.9,29.85,WSW,251,20.0,20.0,81,0.00,,,0.15,0,Wunderground v.1.15,2013-04-08 12:10:00,
2013-04-08 06:22:00,25.6,20.3,29.85,WSW,251,19.0,19.0,80,0.00,,,0.15,0,Wunderground v.1.15,2013-04-08 12:22:00,
2013-04-08 06:34:00,25.4,20.1,29.86,WSW,251,19.0,19.0,80,0.00,,,0.15,0,Wunderground v.1.15,2013-04-08 12:34:00,
2013-04-08 07:36:00,24.7,19.7,29.89,WSW,251,19.0,19.0,81,0.00,,,0.15,26,Wunderground v.1.15,2013-04-08 13:36:00,
2013-04-08 08:16:00,24.8,20.1,29.92,WSW,251,22.0,22.0,82,0.00,,,0.15,72,Wunderground v.1.15,2013-04-08 14:16:00,
2013-04-08 08:22:00,24.7,20.0,29.93,WSW,251,23.0,23.0,82,0.00,,,0.15,76,Wunderground v.1.15,2013-04-08 14:22:00,
2013-04-08 08:42:00,24.3,19.0,29.94,WSW,251,23.0,23.0,80,0.00,,,0.15,100,Wunderground v.1.15,2013-04-08 14:42:00,
2013-04-08 09:36:00,24.3,19.3,29.96,WSW,251,24.0,26.0,81,0.00,,,0.15,160,Wunderground v.1.15,2013-04-08 15:36:00,
2013-04-08 09:52:00,24.3,19.0,29.97,WSW,251,23.0,24.0,80,0.00,,,0.15,172,Wunderground v.1.15,2013-04-08 15:52:00,
2013-04-08 10:20:00,24.5,18.6,29.98,WSW,251,23.0,23.0,78,0.00,,,0.15,211,Wunderground v.1.15,2013-04-08 16:20:00,
2013-04-08 10:26:00,24.5,18.0,29.99,WSW,251,22.0,25.0,76,0.00,,,0.15,213,Wunderground v.1.15,2013-04-08 16:26:00,
2013-04-08 10:32:00,24.3,17.8,29.98,WSW,251,22.0,22.0,76,0.00,,,0.15,213,Wunderground v.1.15,2013-04-08 16:32:00,
2013-04-08 10:44:00,24.6,18.4,29.99,WSW,251,21.0,21.0,77,0.00,,,0.15,236,Wunderground v.1.15,2013-04-08 16:44:00,
2013-04-08 10:50:00,24.6,17.8,29.99,WSW,251,22.0,25.0,75,0.00,,,0.15,197,Wunderground v.1.15,2013-04-08 16:50:00,
2013-04-08 10:56:00,24.7,18.2,29.99,WSW,251,22.0,25.0,76,0.00,,,0.15,232,Wunderground v.1.15,2013-04-08 16:56:00,
2013-04-08 11:08:00,24.7,17.6,29.99,WSW,251,23.0,25.0,74,0.00,,,0.15,255,Wunderground v.1.15,2013-04-08 17:08:00,
2013-04-08 11:30:00,25.4,19.2,30.00,WSW,251,25.0,25.0,77,0.00,,,0.15,287,Wunderground v.1.15,2013-04-08 17:30:00,
2013-04-08 11:42:00,25.0,17.2,30.01,WSW,251,25.0,26.0,72,0.00,,,0.15,294,Wunderground v.1.15,2013-04-08 17:42:00,
2013-04-08 11:48:00,24.9,17.5,30.01,WSW,251,25.0,26.0,73,0.00,,,0.15,299,Wunderground v.1.15,2013-04-08 17:48:00,
2013-04-08 12:00:00,25.2,18.4,30.02,WSW,251,24.0,30.0,75,0.00,,,0.15,338,Wunderground v.1.15,2013-04-08 18:00:00,
2013-04-08 12:20:00,25.1,17.7,30.03,WSW,251,25.0,25.0,73,0.00,,,0.15,332,Wunderground v.1.15,2013-04-08 18:20:00,
2013-04-08 12:38:00,24.9,16.8,30.04,WSW,251,25.0,25.0,71,0.00,,,0.15,323,Wunderground v.1.15,2013-04-08 18:38:00,
2013-04-08 12:48:00,25.2,17.8,30.04,WSW,251,25.0,26.0,73,0.00,,,0.15,306,Wunderground v.1.15,2013-04-08 18:48:00,
2013-04-08 12:54:00,25.0,16.9,30.04,WSW,251,26.0,26.0,71,0.00,,,0.15,318,Wunderground v.1.15,2013-04-08 18:54:00,
2013-04-08 13:02:00,25.0,17.2,30.05,WSW,251,25.0,25.0,72,0.00,,,0.15,362,Wunderground v.1.15,2013-04-08 19:02:00,
2013-04-08 13:10:00,25.3,18.2,30.05,WSW,251,26.0,26.0,74,0.00,,,0.15,366,Wunderground v.1.15,2013-04-08 19:10:00,
2013-04-08 13:16:00,25.3,17.9,30.05,WSW,251,27.0,29.0,73,0.00,,,0.15,369,Wunderground v.1.15,2013-04-08 19:16:00,
2013-04-08 13:28:00,25.4,17.9,30.06,WSW,251,27.0,28.0,73,0.00,,,0.15,388,Wunderground v.1.15,2013-04-08 19:28:00,
2013-04-08 13:44:00,25.7,18.9,30.06,WSW,251,26.0,26.0,75,0.00,,,0.15,401,Wunderground v.1.15,2013-04-08 19:44:00,
2013-04-08 13:58:00,25.8,19.0,30.06,WSW,251,26.0,32.0,75,0.00,,,0.00,394,Wunderground v.1.15,2013-04-08 19:58:00,
2013-04-08 14:04:00,25.7,19.2,30.07,WSW,251,26.0,28.0,76,0.00,,,0.00,401,Wunderground v.1.15,2013-04-08 20:04:00,
2013-04-08 14:28:00,26.0,18.8,30.07,WSW,251,26.0,26.0,74,0.00,,,0.00,452,Wunderground v.1.15,2013-04-08 20:28:00,
2013-04-08 14:34:00,26.1,18.0,30.07,WSW,251,25.0,26.0,71,0.00,,,0.00,434,Wunderground v.1.15,2013-04-08 20:34:00,
2013-04-08 14:44:00,26.0,17.9,30.07,WSW,251,26.0,26.0,71,0.00,,,0.00,461,Wunderground v.1.15,2013-04-08 20:44:00,
2013-04-08 15:02:00,26.1,17.6,30.08,WSW,251,25.0,26.0,70,0.00,,,0.00,353,Wunderground v.1.15,2013-04-08 21:02:00,
2013-04-08 15:08:00,26.3,17.5,30.08,WSW,251,25.0,26.0,69,0.00,,,0.00,355,Wunderground v.1.15,2013-04-08 21:08:00,
2013-04-08 15:32:00,26.9,18.4,30.09,WSW,251,25.0,26.0,70,0.00,,,0.00,408,Wunderground v.1.15,2013-04-08 21:32:00,
2013-04-08 15:50:00,27.2,18.0,30.10,WSW,251,25.0,25.0,68,0.00,,,0.00,381,Wunderground v.1.15,2013-04-08 21:50:00,
2013-04-08 16:02:00,27.7,19.8,30.10,WSW,251,24.0,25.0,72,0.00,,,0.00,424,Wunderground v.1.15,2013-04-08 22:02:00,
2013-04-08 16:14:00,27.5,18.7,30.10,WSW,251,23.0,26.0,69,0.00,,,0.00,455,Wunderground v.1.15,2013-04-08 22:14:00,
2013-04-08 16:22:00,27.6,18.8,30.10,WSW,251,23.0,25.0,69,0.00,,,0.00,461,Wunderground v.1.15,2013-04-08 22:22:00,
2013-04-08 16:34:00,27.8,18.6,30.11,WSW,251,22.0,26.0,68,0.00,,,0.00,355,Wunderground v.1.15,2013-04-08 22:34:00,
2013-04-08 16:40:00,27.9,18.0,30.11,WSW,251,23.0,24.0,66,0.00,,,0.00,656,Wunderground v.1.15,2013-04-08 22:40:00,
2013-04-08 16:52:00,27.9,18.4,30.11,WSW,252,24.0,24.0,67,0.00,,,0.00,406,Wunderground v.1.15,2013-04-08 22:52:00,
2013-04-08 16:58:00,27.6,17.4,30.12,WSW,252,24.0,26.0,65,0.00,,,0.00,439,Wunderground v.1.15,2013-04-08 22:58:00,
2013-04-08 17:28:00,28.0,18.5,30.13,WSW,252,24.0,24.0,67,0.00,,,0.00,406,Wunderground v.1.15,2013-04-08 23:28:00,
2013-04-08 17:36:00,27.9,18.4,30.14,WSW,252,23.0,25.0,67,0.00,,,0.00,366,Wunderground v.1.15,2013-04-08 23:36:00,
2013-04-08 17:44:00,27.9,19.0,30.13,WSW,258,23.0,23.0,69,0.00,,,0.00,295,Wunderground v.1.15,2013-04-08 23:44:00,
2013-04-08 18:16:00,27.5,18.3,30.16,WSW,256,22.0,22.0,68,0.00,,,0.00,204,Wunderground v.1.15,2013-04-09 00:16:00,
2013-04-08 18:28:00,27.4,19.6,30.16,WSW,252,24.0,25.0,72,0.00,,,0.00,213,Wunderground v.1.15,2013-04-09 00:28:00,
2013-04-08 18:54:00,26.4,17.6,30.16,WSW,251,24.0,24.0,69,0.00,,,0.00,167,Wunderground v.1.15,2013-04-09 00:54:00,
2013-04-08 19:02:00,26.1,16.6,30.16,West,267,23.0,23.0,67,0.00,,,0.00,160,Wunderground v.1.15,2013-04-09 01:02:00,
2013-04-08 19:10:00,26.1,17.3,30.17,West,260,23.0,23.0,69,0.00,,,0.00,83,Wunderground v.1.15,2013-04-09 01:10:00,
2013-04-08 19:18:00,25.7,17.3,30.19,West,260,20.0,23.0,70,0.00,,,0.00,70,Wunderground v.1.15,2013-04-09 01:18:00,
2013-04-08 19:24:00,25.6,17.2,30.19,West,262,19.0,19.0,70,0.00,,,0.00,69,Wunderground v.1.15,2013-04-09 01:24:00,
2013-04-08 19:30:00,25.3,16.5,30.20,West,261,19.0,20.0,69,0.00,,,0.00,56,Wunderground v.1.15,2013-04-09 01:30:00,
2013-04-08 19:48:00,24.5,17.1,30.21,West,264,19.0,19.0,73,0.00,,,0.00,23,Wunderground v.1.15,2013-04-09 01:48:00,
2013-04-08 19:58:00,24.1,16.7,30.22,West,266,17.0,18.0,73,0.00,,,0.00,12,Wunderground v.1.15,2013-04-09 01:58:00,
2013-04-08 20:08:00,23.9,16.8,30.22,West,269,19.0,25.0,74,0.00,,,0.00,7,Wunderground v.1.15,2013-04-09 02:08:00,
2013-04-08 20:14:00,23.4,16.0,30.23,West,275,21.0,25.0,73,0.00,,,0.00,0,Wunderground v.1.15,2013-04-09 02:14:00,
2013-04-08 20:32:00,23.0,15.9,30.24,West,268,22.0,22.0,74,0.00,,,0.00,0,Wunderground v.1.15,2013-04-09 02:32:00,
2013-04-08 21:12:00,21.7,15.6,30.27,West,265,22.0,25.0,77,0.00,,,0.00,0,Wunderground v.1.15,2013-04-09 03:12:00,
2013-04-08 21:24:00,21.5,16.0,30.27,WSW,249,20.0,25.0,79,0.00,,,0.00,0,Wunderground v.1.15,2013-04-09 03:24:00,
2013-04-08 21:42:00,21.0,14.6,30.28,West,266,19.0,25.0,76,0.00,,,0.00,0,Wunderground v.1.15,2013-04-09 03:42:00,
2013-04-08 22:10:00,20.1,13.7,30.31,West,262,19.0,25.0,76,0.00,,,0.00,0,Wunderground v.1.15,2013-04-09 04:10:00,
2013-04-08 22:18:00,20.2,14.4,30.31,West,266,19.0,25.0,78,0.00,,,0.00,0,Wunderground v.1.15,2013-04-09 04:18:00,
2013-04-08 22:28:00,20.0,13.6,30.32,West,266,18.0,25.0,76,0.00,,,0.00,0,Wunderground v.1.15,2013-04-09 04:28:00,
2013-04-08 22:52:00,19.9,13.9,30.33,West,271,16.0,25.0,77,0.00,,,0.00,0,Wunderground v.1.15,2013-04-09 04:52:00,
2013-04-08 23:06:00,20.0,13.9,30.34,West,270,17.0,25.0,77,0.00,,,0.00,0,Wunderground v.1.15,2013-04-09 05:06:00,
2013-04-08 23:14:00,19.9,13.6,30.34,West,270,16.0,25.0,76,0.00,,,0.00,0,Wunderground v.1.15,2013-04-09 05:14:00,
2013-04-08 23:28:00,19.7,13.4,30.34,West,269,13.0,25.0,76,0.00,,,0.00,0,Wunderground v.1.15,2013-04-09 05:28:00,
2013-04-08 23:38:00,19.7,13.7,30.34,West,268,13.0,25.0,77,0.00,,,0.00,0,Wunderground v.1.15,2013-04-09 05:38:00,
2013-04-08 23:56:00,19.2,12.6,30.34,West,268,14.0,25.0,75,0.00,,,0.00,0,Wunderground v.1.15,2013-04-09 05:56:00,